Yellowstone Airport
KWYS : now visible

Airfield :











YOU CAN JOIN US ON...

 
LOGIN :

Register | Disclaimer

   EN    FR    IT 

 









Legend :    VFR   Marginal VFR   IFR   Intensive IFR   Very Intensive IFR
Visi :
Ceiling :
>= 8 km
>= 3000ft
5 to 8 km
1000 to 3000 ft
1500m to 5 km
500 to 1000 ft
800 to 1500m
200 to 500 ft
< 800m
< 200 ft
Symbols :   Thunderstorms  Fog  Heavy snow  Heavy precipitations  Wind > 20 kt







- Airport Elevation : 6649 ft


KWYS - Yellowstone

CURRENT METAR :
  • 220125Z AUTO 20007KT 10SM BKN044 OVC050 06/04 A3013 RMK AO2

EXPIRED METARs :
  • 220110Z AUTO 21006KT 10SM BKN045 BKN060 BKN095 06/04 A3012 RMK AO2
  • 220050Z AUTO 22005KT 10SM FEW060 BKN095 06/04 A3012 RMK AO2
  • 220030Z AUTO 21008KT 10SM SCT060 OVC085 07/04 A3012 RMK AO2
  • 220010Z AUTO 22011KT 10SM FEW023 SCT034 OVC080 07/05 A3012 RMK AO2
  • 212345Z AUTO 23005KT 9SM -UP SCT022 BKN028 OVC060 06/05 A3013 RMK AO2
  • 212325Z AUTO 22010KT 10SM FEW035 BKN060 BKN075 07/05 A3013 RMK AO2
  • 212310Z AUTO 21009KT 10SM FEW015 SCT065 BKN100 07/05 A3012 RMK AO2
  • 212250Z AUTO 22011KT 10SM SCT016 BKN065 BKN080 07/05 A3012 RMK AO2

TAF KWYS
Valid from the 22 at 00:00 until the 23 at 00:00 UTC


212326Z 2200/2224 21010KT P6SM VCSH SCT015 BKN050
TEMPO 2200/2202 -SHRA BKN015
FM220600 21007KT P6SM VCFG FEW025 BKN080
FM220800 VRB03KT 6SM BR FEW002 SCT015 BKN030
FM221700 VRB03KT P6SM SCT030
No reported NOTAMs for that airfield.



MET'MAP, your aeronautical weather chart ! - Copyright ORBIFLY December 2007 - Disclaimer

ORBIFLY MET'MAP TEAM :

Programming & Development : Alexandra Zaïnal
Concept & Development : Baudouin d'Aumeries
Co-Development & Prog : Marc-Olivier Méhu
Technical & hardware support : Manuel Goepfert

Contact : metmap@orbifly.com




SOURCES & CREDITS :

   NOAA       Earth
Advisory